sensor_id;sensor_type;location;lat;lon;timestamp;pressure;altitude;pressure_sealevel;temperature;humidity
80414;BME280;69758;52.580;13.068;2023-12-20T00:00:23;100713.21;;;13.03;38.30
80414;BME280;69758;52.580;13.068;2023-12-20T00:02:48;100712.89;;;13.10;38.20
80414;BME280;69758;52.580;13.068;2023-12-20T00:05:14;100710.35;;;13.10;38.15
80414;BME280;69758;52.580;13.068;2023-12-20T00:07:39;100709.66;;;13.18;38.11
80414;BME280;69758;52.580;13.068;2023-12-20T00:10:05;100707.44;;;13.17;38.08
80414;BME280;69758;52.580;13.068;2023-12-20T00:12:29;100700.15;;;13.29;38.21
80414;BME280;69758;52.580;13.068;2023-12-20T00:14:56;100701.15;;;12.94;38.42
80414;BME280;69758;52.580;13.068;2023-12-20T00:17:20;100695.23;;;13.01;38.31
80414;BME280;69758;52.580;13.068;2023-12-20T00:19:46;100694.99;;;13.40;38.11
80414;BME280;69758;52.580;13.068;2023-12-20T00:22:11;100685.64;;;13.21;38.36
80414;BME280;69758;52.580;13.068;2023-12-20T00:24:37;100691.39;;;13.60;38.12
80414;BME280;69758;52.580;13.068;2023-12-20T00:27:01;100689.87;;;13.37;38.11
80414;BME280;69758;52.580;13.068;2023-12-20T00:29:27;100688.19;;;13.10;38.81
80414;BME280;69758;52.580;13.068;2023-12-20T00:31:52;100688.92;;;13.16;38.47
80414;BME280;69758;52.580;13.068;2023-12-20T00:34:17;100688.95;;;12.96;38.39
80414;BME280;69758;52.580;13.068;2023-12-20T00:36:43;100687.22;;;13.02;38.30
80414;BME280;69758;52.580;13.068;2023-12-20T00:39:08;100686.62;;;13.68;38.06
80414;BME280;69758;52.580;13.068;2023-12-20T00:41:34;100686.70;;;13.51;37.98
80414;BME280;69758;52.580;13.068;2023-12-20T00:44:00;100684.28;;;13.58;37.88
80414;BME280;69758;52.580;13.068;2023-12-20T00:46:24;100683.99;;;13.52;37.90
80414;BME280;69758;52.580;13.068;2023-12-20T00:48:50;100690.99;;;12.92;38.38
80414;BME280;69758;52.580;13.068;2023-12-20T00:51:15;100691.24;;;13.58;38.18
80414;BME280;69758;52.580;13.068;2023-12-20T00:53:40;100690.20;;;13.48;38.02
80414;BME280;69758;52.580;13.068;2023-12-20T00:56:06;100684.61;;;13.36;37.85
80414;BME280;69758;52.580;13.068;2023-12-20T00:58:31;100690.03;;;13.48;37.69
80414;BME280;69758;52.580;13.068;2023-12-20T01:00:56;100695.85;;;13.56;37.58
80414;BME280;69758;52.580;13.068;2023-12-20T01:03:21;100690.93;;;13.57;37.83
80414;BME280;69758;52.580;13.068;2023-12-20T01:05:47;100697.35;;;13.62;37.78
80414;BME280;69758;52.580;13.068;2023-12-20T01:08:12;100696.91;;;13.61;37.85
80414;BME280;69758;52.580;13.068;2023-12-20T01:10:37;100706.64;;;13.74;37.61
80414;BME280;69758;52.580;13.068;2023-12-20T01:13:03;100705.32;;;13.50;37.64
80414;BME280;69758;52.580;13.068;2023-12-20T01:15:28;100704.06;;;13.46;37.70
80414;BME280;69758;52.580;13.068;2023-12-20T01:17:53;100701.01;;;13.50;37.62
80414;BME280;69758;52.580;13.068;2023-12-20T01:20:19;100699.73;;;13.43;37.74
80414;BME280;69758;52.580;13.068;2023-12-20T01:22:44;100696.77;;;13.56;37.58
80414;BME280;69758;52.580;13.068;2023-12-20T01:25:09;100704.87;;;13.74;37.34
80414;BME280;69758;52.580;13.068;2023-12-20T01:27:35;100706.08;;;13.66;37.40
80414;BME280;69758;52.580;13.068;2023-12-20T01:30:00;100704.74;;;13.64;37.43
80414;BME280;69758;52.580;13.068;2023-12-20T01:32:26;100703.66;;;13.71;37.37
80414;BME280;69758;52.580;13.068;2023-12-20T01:34:51;100700.73;;;13.74;37.32
80414;BME280;69758;52.580;13.068;2023-12-20T01:37:17;100696.85;;;13.69;37.32
80414;BME280;69758;52.580;13.068;2023-12-20T01:39:42;100700.97;;;13.77;37.71
80414;BME280;69758;52.580;13.068;2023-12-20T01:42:07;100702.11;;;13.51;37.75
80414;BME280;69758;52.580;13.068;2023-12-20T01:44:33;100691.93;;;13.26;37.68
80414;BME280;69758;52.580;13.068;2023-12-20T01:46:58;100688.68;;;13.22;37.75
80414;BME280;69758;52.580;13.068;2023-12-20T01:49:24;100683.76;;;13.30;37.58
80414;BME280;69758;52.580;13.068;2023-12-20T01:51:49;100695.30;;;13.41;37.45
80414;BME280;69758;52.580;13.068;2023-12-20T01:54:14;100700.78;;;13.35;37.49
80414;BME280;69758;52.580;13.068;2023-12-20T01:56:40;100700.99;;;13.34;37.53
80414;BME280;69758;52.580;13.068;2023-12-20T01:59:05;100692.37;;;13.40;37.45
80414;BME280;69758;52.580;13.068;2023-12-20T02:01:30;100694.82;;;13.40;37.46
80414;BME280;69758;52.580;13.068;2023-12-20T02:03:56;100689.52;;;13.44;37.42
80414;BME280;69758;52.580;13.068;2023-12-20T02:06:21;100674.98;;;13.76;37.29
80414;BME280;69758;52.580;13.068;2023-12-20T02:08:47;100668.06;;;14.08;37.15
80414;BME280;69758;52.580;13.068;2023-12-20T02:11:11;100671.85;;;13.71;37.02
80414;BME280;69758;52.580;13.068;2023-12-20T02:13:37;100668.52;;;14.01;36.92
80414;BME280;69758;52.580;13.068;2023-12-20T02:16:02;100675.99;;;13.77;36.90
80414;BME280;69758;52.580;13.068;2023-12-20T02:18:27;100678.97;;;14.01;36.90
80414;BME280;69758;52.580;13.068;2023-12-20T02:20:53;100677.67;;;13.80;36.81
80414;BME280;69758;52.580;13.068;2023-12-20T02:23:18;100679.69;;;13.80;36.76
80414;BME280;69758;52.580;13.068;2023-12-20T02:25:43;100680.57;;;13.82;36.69
80414;BME280;69758;52.580;13.068;2023-12-20T02:28:09;100680.91;;;13.82;36.67
80414;BME280;69758;52.580;13.068;2023-12-20T02:30:34;100685.43;;;13.81;36.63
80414;BME280;69758;52.580;13.068;2023-12-20T02:33:01;100684.00;;;13.71;36.69
80414;BME280;69758;52.580;13.068;2023-12-20T02:35:25;100682.29;;;13.94;37.03
80414;BME280;69758;52.580;13.068;2023-12-20T02:37:50;100683.77;;;13.28;37.12
80414;BME280;69758;52.580;13.068;2023-12-20T02:40:16;100680.74;;;13.46;37.33
80414;BME280;69758;52.580;13.068;2023-12-20T02:42:41;100678.44;;;13.66;37.39
80414;BME280;69758;52.580;13.068;2023-12-20T02:45:08;100686.28;;;13.44;37.38
80414;BME280;69758;52.580;13.068;2023-12-20T02:47:33;100686.33;;;13.11;37.43
80414;BME280;69758;52.580;13.068;2023-12-20T02:49:58;100681.79;;;13.04;37.48
80414;BME280;69758;52.580;13.068;2023-12-20T02:52:24;100678.32;;;13.05;37.43
80414;BME280;69758;52.580;13.068;2023-12-20T02:54:48;100683.77;;;13.12;37.34
80414;BME280;69758;52.580;13.068;2023-12-20T02:57:13;100685.23;;;13.62;37.32
80414;BME280;69758;52.580;13.068;2023-12-20T02:59:39;100679.54;;;13.13;37.35
80414;BME280;69758;52.580;13.068;2023-12-20T03:02:04;100678.99;;;13.30;37.40
80414;BME280;69758;52.580;13.068;2023-12-20T03:04:29;100687.84;;;13.11;37.37
80414;BME280;69758;52.580;13.068;2023-12-20T03:06:55;100686.62;;;13.07;37.41
80414;BME280;69758;52.580;13.068;2023-12-20T03:09:20;100688.73;;;13.62;37.31
80414;BME280;69758;52.580;13.068;2023-12-20T03:11:46;100690.21;;;13.42;37.27
80414;BME280;69758;52.580;13.068;2023-12-20T03:14:12;100693.36;;;13.48;37.20
80414;BME280;69758;52.580;13.068;2023-12-20T03:16:36;100695.96;;;13.54;37.10
80414;BME280;69758;52.580;13.068;2023-12-20T03:19:02;100704.75;;;13.31;37.01
80414;BME280;69758;52.580;13.068;2023-12-20T03:21:27;100703.63;;;13.31;37.01
80414;BME280;69758;52.580;13.068;2023-12-20T03:23:53;100694.02;;;13.34;36.95
80414;BME280;69758;52.580;13.068;2023-12-20T03:26:18;100692.37;;;13.51;36.96
80414;BME280;69758;52.580;13.068;2023-12-20T03:28:43;100695.91;;;13.19;37.15
80414;BME280;69758;52.580;13.068;2023-12-20T03:31:09;100694.27;;;12.96;37.34
80414;BME280;69758;52.580;13.068;2023-12-20T03:33:34;100691.87;;;13.08;37.30
80414;BME280;69758;52.580;13.068;2023-12-20T03:35:59;100691.16;;;13.38;37.20
80414;BME280;69758;52.580;13.068;2023-12-20T03:38:24;100689.41;;;13.15;37.24
80414;BME280;69758;52.580;13.068;2023-12-20T03:40:50;100679.94;;;13.00;37.11
80414;BME280;69758;52.580;13.068;2023-12-20T03:43:15;100675.47;;;13.24;37.01
80414;BME280;69758;52.580;13.068;2023-12-20T03:45:42;100676.61;;;13.14;37.12
80414;BME280;69758;52.580;13.068;2023-12-20T03:48:06;100682.70;;;13.19;37.06
80414;BME280;69758;52.580;13.068;2023-12-20T03:50:31;100682.74;;;13.07;37.16
80414;BME280;69758;52.580;13.068;2023-12-20T03:52:56;100681.80;;;13.40;36.99
80414;BME280;69758;52.580;13.068;2023-12-20T03:55:22;100677.22;;;13.28;37.13
80414;BME280;69758;52.580;13.068;2023-12-20T03:57:52;100673.64;;;13.25;36.90
80414;BME280;69758;52.580;13.068;2023-12-20T04:00:13;100672.09;;;13.31;36.80
80414;BME280;69758;52.580;13.068;2023-12-20T04:02:39;100668.60;;;13.13;36.63
80414;BME280;69758;52.580;13.068;2023-12-20T04:05:04;100659.92;;;13.33;36.55
80414;BME280;69758;52.580;13.068;2023-12-20T04:07:29;100653.12;;;13.06;36.52
80414;BME280;69758;52.580;13.068;2023-12-20T04:09:54;100653.36;;;13.33;36.46
80414;BME280;69758;52.580;13.068;2023-12-20T04:12:19;100653.94;;;13.39;36.31
80414;BME280;69758;52.580;13.068;2023-12-20T04:14:45;100652.09;;;13.08;36.30
80414;BME280;69758;52.580;13.068;2023-12-20T04:17:11;100653.88;;;12.88;36.17
80414;BME280;69758;52.580;13.068;2023-12-20T04:19:35;100659.92;;;13.18;35.98
80414;BME280;69758;52.580;13.068;2023-12-20T04:22:01;100659.80;;;12.96;35.86
80414;BME280;69758;52.580;13.068;2023-12-20T04:24:26;100661.83;;;13.39;35.81
80414;BME280;69758;52.580;13.068;2023-12-20T04:26:53;100663.87;;;13.08;35.85
80414;BME280;69758;52.580;13.068;2023-12-20T04:29:17;100660.08;;;13.06;35.81
80414;BME280;69758;52.580;13.068;2023-12-20T04:31:43;100654.89;;;13.12;35.66
80414;BME280;69758;52.580;13.068;2023-12-20T04:34:07;100654.72;;;13.03;35.62
80414;BME280;69758;52.580;13.068;2023-12-20T04:36:33;100651.52;;;13.26;35.60
80414;BME280;69758;52.580;13.068;2023-12-20T04:38:58;100657.01;;;13.24;35.52
80414;BME280;69758;52.580;13.068;2023-12-20T04:41:24;100655.18;;;12.91;35.55
80414;BME280;69758;52.580;13.068;2023-12-20T04:43:49;100658.00;;;13.20;35.48
80414;BME280;69758;52.580;13.068;2023-12-20T04:46:14;100658.21;;;13.10;35.53
80414;BME280;69758;52.580;13.068;2023-12-20T04:48:40;100658.30;;;13.06;35.52
80414;BME280;69758;52.580;13.068;2023-12-20T04:51:05;100651.44;;;12.72;35.63
80414;BME280;69758;52.580;13.068;2023-12-20T04:53:31;100645.21;;;12.81;35.76
80414;BME280;69758;52.580;13.068;2023-12-20T04:55:56;100642.04;;;12.57;35.80
80414;BME280;69758;52.580;13.068;2023-12-20T04:58:21;100636.40;;;12.44;35.93
80414;BME280;69758;52.580;13.068;2023-12-20T05:00:47;100640.73;;;12.25;36.28
80414;BME280;69758;52.580;13.068;2023-12-20T05:03:17;100643.20;;;12.12;36.26
80414;BME280;69758;52.580;13.068;2023-12-20T05:05:38;100642.80;;;12.36;36.26
80414;BME280;69758;52.580;13.068;2023-12-20T05:08:03;100642.71;;;12.38;36.25
80414;BME280;69758;52.580;13.068;2023-12-20T05:10:28;100643.91;;;12.43;36.14
80414;BME280;69758;52.580;13.068;2023-12-20T05:12:54;100644.94;;;12.10;36.09
80414;BME280;69758;52.580;13.068;2023-12-20T05:15:19;100645.89;;;12.47;35.85
80414;BME280;69758;52.580;13.068;2023-12-20T05:17:44;100646.93;;;12.40;35.90
80414;BME280;69758;52.580;13.068;2023-12-20T05:20:10;100649.48;;;12.11;35.91
80414;BME280;69758;52.580;13.068;2023-12-20T05:22:35;100648.10;;;12.48;36.06
80414;BME280;69758;52.580;13.068;2023-12-20T05:25:00;100650.54;;;12.32;35.95
80414;BME280;69758;52.580;13.068;2023-12-20T05:27:26;100650.38;;;12.35;35.84
80414;BME280;69758;52.580;13.068;2023-12-20T05:29:51;100651.29;;;11.92;35.71
80414;BME280;69758;52.580;13.068;2023-12-20T05:32:17;100652.50;;;12.29;35.70
80414;BME280;69758;52.580;13.068;2023-12-20T05:34:42;100650.35;;;12.17;35.87
80414;BME280;69758;52.580;13.068;2023-12-20T05:37:07;100647.43;;;11.95;35.80
80414;BME280;69758;52.580;13.068;2023-12-20T05:39:32;100643.24;;;12.07;35.86
80414;BME280;69758;52.580;13.068;2023-12-20T05:41:58;100645.66;;;12.09;35.79
80414;BME280;69758;52.580;13.068;2023-12-20T05:44:23;100642.04;;;12.14;35.86
80414;BME280;69758;52.580;13.068;2023-12-20T05:46:49;100638.13;;;11.65;35.89
80414;BME280;69758;52.580;13.068;2023-12-20T05:49:14;100640.21;;;12.12;35.75
80414;BME280;69758;52.580;13.068;2023-12-20T05:51:39;100640.04;;;11.78;35.93
80414;BME280;69758;52.580;13.068;2023-12-20T05:54:05;100642.44;;;12.13;35.88
80414;BME280;69758;52.580;13.068;2023-12-20T05:56:30;100637.90;;;11.98;35.75
80414;BME280;69758;52.580;13.068;2023-12-20T05:58:55;100635.72;;;11.77;35.65
80414;BME280;69758;52.580;13.068;2023-12-20T06:01:21;100628.49;;;12.12;35.72
80414;BME280;69758;52.580;13.068;2023-12-20T06:03:47;100625.93;;;11.89;35.69
80414;BME280;69758;52.580;13.068;2023-12-20T06:06:12;100618.25;;;11.96;35.63
80414;BME280;69758;52.580;13.068;2023-12-20T06:08:37;100618.40;;;12.16;35.59
80414;BME280;69758;52.580;13.068;2023-12-20T06:11:03;100620.15;;;11.93;35.63
80414;BME280;69758;52.580;13.068;2023-12-20T06:13:28;100620.53;;;12.18;35.58
80414;BME280;69758;52.580;13.068;2023-12-20T06:15:54;100629.84;;;11.90;35.55
80414;BME280;69758;52.580;13.068;2023-12-20T06:18:18;100627.89;;;11.87;35.59
80414;BME280;69758;52.580;13.068;2023-12-20T06:20:44;100625.42;;;11.93;35.56
80414;BME280;69758;52.580;13.068;2023-12-20T06:23:09;100625.11;;;11.83;35.66
80414;BME280;69758;52.580;13.068;2023-12-20T06:25:35;100622.79;;;12.05;35.69
80414;BME280;69758;52.580;13.068;2023-12-20T06:28:00;100624.64;;;11.79;35.75
80414;BME280;69758;52.580;13.068;2023-12-20T06:30:25;100618.58;;;11.71;35.89
80414;BME280;69758;52.580;13.068;2023-12-20T06:32:51;100620.42;;;11.59;36.01
80414;BME280;69758;52.580;13.068;2023-12-20T06:35:17;100618.76;;;11.63;36.23
80414;BME280;69758;52.580;13.068;2023-12-20T06:37:42;100621.35;;;11.77;36.41
80414;BME280;69758;52.580;13.068;2023-12-20T06:40:08;100625.96;;;11.36;36.72
80414;BME280;69758;52.580;13.068;2023-12-20T06:42:32;100622.43;;;11.67;36.68
80414;BME280;69758;52.580;13.068;2023-12-20T06:44:58;100618.19;;;11.40;36.78
80414;BME280;69758;52.580;13.068;2023-12-20T06:47:23;100618.96;;;11.50;36.71
80414;BME280;69758;52.580;13.068;2023-12-20T06:49:49;100611.82;;;11.40;36.57
80414;BME280;69758;52.580;13.068;2023-12-20T06:52:14;100609.27;;;11.56;36.68
80414;BME280;69758;52.580;13.068;2023-12-20T06:54:39;100608.07;;;11.95;36.78
80414;BME280;69758;52.580;13.068;2023-12-20T06:57:05;100611.24;;;10.93;37.16
80414;BME280;69758;52.580;13.068;2023-12-20T06:59:30;100606.06;;;11.62;37.30
80414;BME280;69758;52.580;13.068;2023-12-20T07:01:56;100610.37;;;10.92;37.71
80414;BME280;69758;52.580;13.068;2023-12-20T07:04:21;100608.36;;;10.74;38.31
80414;BME280;69758;52.580;13.068;2023-12-20T07:06:47;100603.06;;;10.97;37.77
80414;BME280;69758;52.580;13.068;2023-12-20T07:09:13;100603.53;;;10.65;37.87
80414;BME280;69758;52.580;13.068;2023-12-20T07:11:37;100605.35;;;11.21;37.47
80414;BME280;69758;52.580;13.068;2023-12-20T07:14:03;100601.09;;;11.18;37.46
80414;BME280;69758;52.580;13.068;2023-12-20T07:16:28;100600.35;;;11.16;37.48
80414;BME280;69758;52.580;13.068;2023-12-20T07:18:54;100595.29;;;11.25;37.42
80414;BME280;69758;52.580;13.068;2023-12-20T07:21:19;100601.78;;;11.19;37.40
80414;BME280;69758;52.580;13.068;2023-12-20T07:23:44;100594.53;;;10.71;38.02
80414;BME280;69758;52.580;13.068;2023-12-20T07:26:10;100592.58;;;11.03;37.67
80414;BME280;69758;52.580;13.068;2023-12-20T07:28:35;100589.77;;;11.11;37.86
80414;BME280;69758;52.580;13.068;2023-12-20T07:31:00;100594.72;;;11.33;37.55
80414;BME280;69758;52.580;13.068;2023-12-20T07:33:26;100590.12;;;10.88;37.77
80414;BME280;69758;52.580;13.068;2023-12-20T07:35:51;100589.06;;;10.60;38.07
80414;BME280;69758;52.580;13.068;2023-12-20T07:38:17;100587.56;;;10.74;38.02
80414;BME280;69758;52.580;13.068;2023-12-20T07:40:42;100586.56;;;10.64;38.03
80414;BME280;69758;52.580;13.068;2023-12-20T07:43:07;100589.30;;;10.61;38.20
80414;BME280;69758;52.580;13.068;2023-12-20T07:45:33;100587.78;;;10.78;37.92
80414;BME280;69758;52.580;13.068;2023-12-20T07:47:58;100590.90;;;10.94;37.70
80414;BME280;69758;52.580;13.068;2023-12-20T07:50:24;100593.08;;;10.90;37.97
80414;BME280;69758;52.580;13.068;2023-12-20T07:52:49;100589.74;;;10.71;37.94
80414;BME280;69758;52.580;13.068;2023-12-20T07:55:14;100590.76;;;10.75;38.32
80414;BME280;69758;52.580;13.068;2023-12-20T07:57:39;100593.09;;;10.75;38.25
80414;BME280;69758;52.580;13.068;2023-12-20T08:00:06;100593.55;;;11.10;38.13
80414;BME280;69758;52.580;13.068;2023-12-20T08:02:30;100589.15;;;10.91;38.37
80414;BME280;69758;52.580;13.068;2023-12-20T08:04:56;100586.46;;;10.93;38.28
80414;BME280;69758;52.580;13.068;2023-12-20T08:07:21;100592.23;;;10.77;38.18
80414;BME280;69758;52.580;13.068;2023-12-20T08:09:46;100594.13;;;11.03;37.80
80414;BME280;69758;52.580;13.068;2023-12-20T08:12:12;100600.02;;;10.60;39.02
80414;BME280;69758;52.580;13.068;2023-12-20T08:14:37;100597.64;;;10.32;39.08
80414;BME280;69758;52.580;13.068;2023-12-20T08:17:03;100595.96;;;10.55;38.82
80414;BME280;69758;52.580;13.068;2023-12-20T08:19:28;100597.08;;;10.80;38.55
80414;BME280;69758;52.580;13.068;2023-12-20T08:21:53;100594.27;;;10.56;38.15
80414;BME280;69758;52.580;13.068;2023-12-20T08:24:19;100587.79;;;10.74;38.53
80414;BME280;69758;52.580;13.068;2023-12-20T08:26:44;100584.49;;;10.35;38.90
80414;BME280;69758;52.580;13.068;2023-12-20T08:29:09;100576.12;;;10.24;39.27
80414;BME280;69758;52.580;13.068;2023-12-20T08:31:35;100572.72;;;10.16;39.83
80414;BME280;69758;52.580;13.068;2023-12-20T08:34:00;100573.45;;;10.13;39.56
80414;BME280;69758;52.580;13.068;2023-12-20T08:36:26;100571.30;;;10.24;39.27
80414;BME280;69758;52.580;13.068;2023-12-20T08:38:51;100568.14;;;10.20;39.46
80414;BME280;69758;52.580;13.068;2023-12-20T08:41:17;100565.95;;;10.39;39.26
80414;BME280;69758;52.580;13.068;2023-12-20T08:43:42;100569.13;;;10.60;38.98
80414;BME280;69758;52.580;13.068;2023-12-20T08:46:08;100563.83;;;9.99;39.67
80414;BME280;69758;52.580;13.068;2023-12-20T08:48:33;100573.29;;;10.32;39.37
80414;BME280;69758;52.580;13.068;2023-12-20T08:50:58;100573.42;;;10.05;39.68
80414;BME280;69758;52.580;13.068;2023-12-20T08:53:24;100567.89;;;9.83;39.92
80414;BME280;69758;52.580;13.068;2023-12-20T08:55:49;100567.90;;;10.13;39.32
80414;BME280;69758;52.580;13.068;2023-12-20T08:58:14;100561.87;;;10.24;39.26
80414;BME280;69758;52.580;13.068;2023-12-20T09:00:40;100558.60;;;9.97;39.72
80414;BME280;69758;52.580;13.068;2023-12-20T09:03:05;100555.23;;;10.14;39.36
80414;BME280;69758;52.580;13.068;2023-12-20T09:05:31;100563.24;;;10.35;39.31
80414;BME280;69758;52.580;13.068;2023-12-20T09:07:56;100563.26;;;10.32;39.02
80414;BME280;69758;52.580;13.068;2023-12-20T09:10:21;100562.68;;;10.56;39.02
80414;BME280;69758;52.580;13.068;2023-12-20T09:12:47;100574.87;;;10.17;39.79
80414;BME280;69758;52.580;13.068;2023-12-20T09:15:12;100562.40;;;10.20;39.57
80414;BME280;69758;52.580;13.068;2023-12-20T09:17:37;100564.34;;;10.27;39.21
80414;BME280;69758;52.580;13.068;2023-12-20T09:20:03;100560.04;;;10.20;39.20
80414;BME280;69758;52.580;13.068;2023-12-20T09:22:28;100560.98;;;10.74;38.67
80414;BME280;69758;52.580;13.068;2023-12-20T09:24:54;100564.02;;;10.41;38.79
80414;BME280;69758;52.580;13.068;2023-12-20T09:27:19;100564.29;;;10.75;38.79
80414;BME280;69758;52.580;13.068;2023-12-20T09:29:44;100553.93;;;10.45;39.36
80414;BME280;69758;52.580;13.068;2023-12-20T09:32:09;100553.96;;;10.47;38.98
80414;BME280;69758;52.580;13.068;2023-12-20T09:34:35;100555.18;;;11.09;38.54
80414;BME280;69758;52.580;13.068;2023-12-20T09:37:00;100555.51;;;10.56;38.83
80414;BME280;69758;52.580;13.068;2023-12-20T09:39:26;100551.77;;;10.57;38.55
80414;BME280;69758;52.580;13.068;2023-12-20T09:42:00;100548.09;;;9.93;39.43
80414;BME280;69758;52.580;13.068;2023-12-20T09:44:18;100547.40;;;10.42;39.30
80414;BME280;69758;52.580;13.068;2023-12-20T09:46:44;100549.63;;;10.31;39.02
80414;BME280;69758;52.580;13.068;2023-12-20T09:49:07;100550.54;;;10.61;38.64
80414;BME280;69758;52.580;13.068;2023-12-20T09:51:33;100549.13;;;10.57;38.63
80414;BME280;69758;52.580;13.068;2023-12-20T09:53:59;100537.84;;;10.73;38.12
80414;BME280;69758;52.580;13.068;2023-12-20T09:56:25;100541.05;;;10.90;37.85
80414;BME280;69758;52.580;13.068;2023-12-20T09:58:49;100538.27;;;11.09;37.65
80414;BME280;69758;52.580;13.068;2023-12-20T10:01:15;100532.04;;;11.10;37.46
80414;BME280;69758;52.580;13.068;2023-12-20T10:03:41;100529.22;;;11.06;37.46
80414;BME280;69758;52.580;13.068;2023-12-20T10:06:06;100522.73;;;10.92;37.55
80414;BME280;69758;52.580;13.068;2023-12-20T10:08:33;100517.42;;;11.02;37.46
80414;BME280;69758;52.580;13.068;2023-12-20T10:10:56;100515.88;;;11.10;37.41
80414;BME280;69758;52.580;13.068;2023-12-20T10:13:21;100504.58;;;11.14;37.02
80414;BME280;69758;52.580;13.068;2023-12-20T10:15:47;100505.28;;;11.27;36.83
80414;BME280;69758;52.580;13.068;2023-12-20T10:18:12;100497.18;;;11.57;36.70
80414;BME280;69758;52.580;13.068;2023-12-20T10:20:37;100498.83;;;11.47;36.78
80414;BME280;69758;52.580;13.068;2023-12-20T10:23:03;100494.90;;;11.46;36.54
80414;BME280;69758;52.580;13.068;2023-12-20T10:25:28;100489.28;;;11.13;37.02
80414;BME280;69758;52.580;13.068;2023-12-20T10:30:19;100471.17;;;10.85;37.54
80414;BME280;69758;52.580;13.068;2023-12-20T10:32:44;100468.22;;;11.38;36.98
80414;BME280;69758;52.580;13.068;2023-12-20T10:35:09;100464.96;;;11.05;37.24
80414;BME280;69758;52.580;13.068;2023-12-20T10:37:37;100464.64;;;11.06;37.30
80414;BME280;69758;52.580;13.068;2023-12-20T10:40:03;100455.59;;;10.93;37.27
80414;BME280;69758;52.580;13.068;2023-12-20T10:42:26;100455.16;;;10.90;37.28
80414;BME280;69758;52.580;13.068;2023-12-20T10:44:51;100446.64;;;10.92;37.70
80414;BME280;69758;52.580;13.068;2023-12-20T10:47:17;100452.50;;;10.79;37.90
80414;BME280;69758;52.580;13.068;2023-12-20T10:49:42;100443.57;;;11.17;37.71
80414;BME280;69758;52.580;13.068;2023-12-20T10:52:08;100437.74;;;11.36;37.22
80414;BME280;69758;52.580;13.068;2023-12-20T10:54:33;100431.99;;;11.20;37.42
80414;BME280;69758;52.580;13.068;2023-12-20T10:56:58;100431.55;;;10.81;37.47
80414;BME280;69758;52.580;13.068;2023-12-20T10:59:23;100420.50;;;11.00;37.53
80414;BME280;69758;52.580;13.068;2023-12-20T11:01:50;100416.82;;;10.90;37.80
80414;BME280;69758;52.580;13.068;2023-12-20T11:04:19;100411.89;;;11.06;37.87
80414;BME280;69758;52.580;13.068;2023-12-20T11:06:45;100408.58;;;10.75;38.08
80414;BME280;69758;52.580;13.068;2023-12-20T11:09:13;100408.03;;;11.03;37.92
80414;BME280;69758;52.580;13.068;2023-12-20T11:11:34;100402.38;;;10.67;38.31
80414;BME280;69758;52.580;13.068;2023-12-20T11:13:58;100400.40;;;11.00;38.33
80414;BME280;69758;52.580;13.068;2023-12-20T11:16:21;100393.91;;;10.71;38.45
80414;BME280;69758;52.580;13.068;2023-12-20T11:18:46;100389.81;;;11.13;38.07
80414;BME280;69758;52.580;13.068;2023-12-20T11:21:12;100387.66;;;11.16;38.04
80414;BME280;69758;52.580;13.068;2023-12-20T11:23:38;100383.08;;;10.74;38.61
80414;BME280;69758;52.580;13.068;2023-12-20T11:26:03;100378.84;;;10.55;38.74
80414;BME280;69758;52.580;13.068;2023-12-20T11:28:29;100370.97;;;10.92;38.30
80414;BME280;69758;52.580;13.068;2023-12-20T11:30:55;100357.19;;;11.34;38.02
80414;BME280;69758;52.580;13.068;2023-12-20T11:33:35;100356.79;;;11.31;37.62
80414;BME280;69758;52.580;13.068;2023-12-20T11:35:46;100358.18;;;11.46;37.47
80414;BME280;69758;52.580;13.068;2023-12-20T11:38:10;100348.98;;;11.69;37.14
80414;BME280;69758;52.580;13.068;2023-12-20T11:40:40;100346.97;;;11.61;37.29
80414;BME280;69758;52.580;13.068;2023-12-20T11:43:00;100341.19;;;11.63;37.31
80414;BME280;69758;52.580;13.068;2023-12-20T11:45:27;100327.02;;;11.71;37.28
80414;BME280;69758;52.580;13.068;2023-12-20T11:47:51;100320.62;;;11.13;37.61
80414;BME280;69758;52.580;13.068;2023-12-20T11:50:16;100311.11;;;10.59;38.47
80414;BME280;69758;52.580;13.068;2023-12-20T11:52:42;100310.00;;;10.42;38.84
80414;BME280;69758;52.580;13.068;2023-12-20T11:55:07;100302.92;;;10.71;38.66
80414;BME280;69758;52.580;13.068;2023-12-20T11:57:33;100290.66;;;11.34;38.15
80414;BME280;69758;52.580;13.068;2023-12-20T11:59:58;100288.58;;;10.92;38.28
80414;BME280;69758;52.580;13.068;2023-12-20T12:02:23;100277.49;;;10.84;38.25
80414;BME280;69758;52.580;13.068;2023-12-20T12:04:48;100270.28;;;11.15;38.20
80414;BME280;69758;52.580;13.068;2023-12-20T12:07:14;100272.45;;;10.85;38.68
80414;BME280;69758;52.580;13.068;2023-12-20T12:09:39;100267.94;;;10.99;38.49
80414;BME280;69758;52.580;13.068;2023-12-20T12:12:05;100263.21;;;10.99;37.91
80414;BME280;69758;52.580;13.068;2023-12-20T12:14:30;100264.98;;;11.08;37.88
80414;BME280;69758;52.580;13.068;2023-12-20T12:16:55;100257.64;;;11.39;37.28
80414;BME280;69758;52.580;13.068;2023-12-20T12:19:21;100260.50;;;11.50;37.39
80414;BME280;69758;52.580;13.068;2023-12-20T12:21:46;100260.62;;;11.28;37.74
80414;BME280;69758;52.580;13.068;2023-12-20T12:24:12;100253.54;;;11.09;38.09
80414;BME280;69758;52.580;13.068;2023-12-20T12:26:36;100252.92;;;10.98;38.53
80414;BME280;69758;52.580;13.068;2023-12-20T12:29:02;100256.66;;;11.23;38.48
80414;BME280;69758;52.580;13.068;2023-12-20T12:31:27;100251.73;;;10.98;38.90